^^
Saratoga-Weather Station Historical Data
Daily Summary for June 15, 2020 Units:  Metric    English   Both
Daily Weekly Monthly Yearly Custom
  High: Low: Average:
Temperature: 23.9 °C 12.3 °C 18.7 °C
Dew Point: 15.5 °C 11.2 °C 13.7 °C
Humidity: 94% 52% 74%
Wind Speed: 17.7km/h 0km/h 4.3km/h
Wind Gust: 20.9km/h - -
Wind- - West
Pressure: 1017.3 hPa 1015.6 hPa -
Precipitation: 0.0 mm    
Historical Graphs
 
 
Tabular Data for June 15, 2020
Time Temperature Dew Point Pressure Wind Wind Speed Wind Gust Humidity Rainfall Rate (Hourly) solar
00:03 16.9 °C 13.6 °C 1015.9 hPa WNW 4.7 km/h 4.8 km/h 81% 0.0 mm 0 W/m2
00:08 16.9 °C 13.6 °C 1015.9 hPa WSW 6.4 km/h 6.4 km/h 81% 0.0 mm 0 W/m2
00:13 16.9 °C 13.6 °C 1015.9 hPa West 9.7 km/h 9.7 km/h 81% 0.0 mm 0 W/m2
00:18 16.9 °C 13.6 °C 1015.9 hPa West 4.7 km/h 6.4 km/h 81% 0.0 mm 0 W/m2
00:23 16.8 °C 13.5 °C 1016.3 hPa WSW 7.9 km/h 8 km/h 81% 0.0 mm 0 W/m2
00:28 16.8 °C 13.5 °C 1015.9 hPa WSW 3.2 km/h 6.4 km/h 81% 0.0 mm 0 W/m2
00:33 16.7 °C 13.4 °C 1015.9 hPa West 6.4 km/h 6.4 km/h 81% 0.0 mm 0 W/m2
00:38 16.7 °C 13.6 °C 1015.9 hPa WNW 4.7 km/h 12.9 km/h 82% 0.0 mm 0 W/m2
00:43 16.7 °C 13.6 °C 1016.3 hPa West 1.4 km/h 8 km/h 82% 0.0 mm 0 W/m2
00:48 16.6 °C 13.5 °C 1015.9 hPa SW 4.7 km/h 11.3 km/h 82% 0.0 mm 0 W/m2
00:53 16.6 °C 13.5 °C 1015.9 hPa West 4.7 km/h 11.3 km/h 82% 0.0 mm 0 W/m2
00:58 16.5 °C 13.4 °C 1015.9 hPa WNW 6.4 km/h 8 km/h 82% 0.0 mm 0 W/m2
01:03 16.5 °C 13.4 °C 1016.3 hPa WNW 4.7 km/h 6.4 km/h 82% 0.0 mm 0 W/m2
01:08 16.5 °C 13.4 °C 1016.3 hPa WNW 12.9 km/h 12.9 km/h 82% 0.0 mm 0 W/m2
01:14 16.4 °C 13.3 °C 1015.9 hPa WSW 6.4 km/h 6.4 km/h 82% 0.0 mm 0 W/m2
01:19 16.3 °C 13.2 °C 1015.9 hPa West 4.7 km/h 11.3 km/h 82% 0.0 mm 0 W/m2
01:24 16.2 °C 13.3 °C 1015.9 hPa West 6.4 km/h 6.4 km/h 83% 0.0 mm 0 W/m2
01:29 16.2 °C 13.3 °C 1015.9 hPa West 4.7 km/h 6.4 km/h 83% 0.0 mm 0 W/m2
01:34 16.1 °C 13.2 °C 1015.9 hPa West 4.7 km/h 11.3 km/h 83% 0.0 mm 0 W/m2
01:39 16.1 °C 13.2 °C 1015.9 hPa WSW 4.7 km/h 9.7 km/h 83% 0.0 mm 0 W/m2
01:44 16.1 °C 13 °C 1015.9 hPa WNW 3.2 km/h 11.3 km/h 82% 0.0 mm 0 W/m2
01:49 16.1 °C 13 °C 1015.9 hPa West 1.4 km/h 6.4 km/h 82% 0.0 mm 0 W/m2
01:54 16.1 °C 13 °C 1015.9 hPa WNW 7.9 km/h 11.3 km/h 82% 0.0 mm 0 W/m2
01:59 16.1 °C 13 °C 1015.9 hPa West 3.2 km/h 12.9 km/h 82% 0.0 mm 0 W/m2
02:04 16 °C 12.9 °C 1015.9 hPa West 11.1 km/h 11.3 km/h 82% 0.0 mm 0 W/m2
02:09 16 °C 12.9 °C 1015.9 hPa West 4.7 km/h 4.8 km/h 82% 0.0 mm 0 W/m2
02:14 15.9 °C 12.8 °C 1016.3 hPa West 6.4 km/h 12.9 km/h 82% 0.0 mm 0 W/m2
02:19 15.9 °C 13 °C 1015.9 hPa WSW 7.9 km/h 12.9 km/h 83% 0.0 mm 0 W/m2
02:24 15.8 °C 12.9 °C 1015.9 hPa WNW 7.9 km/h 8 km/h 83% 0.0 mm 0 W/m2
02:29 15.8 °C 12.9 °C 1015.9 hPa West 11.1 km/h 12.9 km/h 83% 0.0 mm 0 W/m2
02:34 15.7 °C 12.8 °C 1016.3 hPa West 6.4 km/h 6.4 km/h 83% 0.0 mm 0 W/m2
02:39 15.7 °C 12.8 °C 1015.9 hPa WNW 1.4 km/h 6.4 km/h 83% 0.0 mm 0 W/m2
02:44 15.7 °C 12.8 °C 1015.9 hPa WNW 4.7 km/h 11.3 km/h 83% 0.0 mm 0 W/m2
02:49 15.7 °C 12.6 °C 1016.3 hPa West 4.7 km/h 6.4 km/h 82% 0.0 mm 0 W/m2
02:54 15.7 °C 12.6 °C 1016.3 hPa West 6.4 km/h 6.4 km/h 82% 0.0 mm 0 W/m2
02:59 15.6 °C 12.5 °C 1016.3 hPa West 6.4 km/h 6.4 km/h 82% 0.0 mm 0 W/m2
03:04 15.7 °C 12.6 °C 1016.3 hPa WNW 3.2 km/h 4.8 km/h 82% 0.0 mm 0 W/m2
03:09 15.7 °C 12.6 °C 1016.3 hPa WNW 4.7 km/h 14.5 km/h 82% 0.0 mm 0 W/m2
03:14 15.7 °C 12.6 °C 1016.3 hPa West 3.2 km/h 9.7 km/h 82% 0.0 mm 0 W/m2
03:19 15.7 °C 12.6 °C 1016.3 hPa Calm   4.8 km/h 82% 0.0 mm 0 W/m2
03:24 15.6 °C 12.5 °C 1016.3 hPa West 1.4 km/h 6.4 km/h 82% 0.0 mm 0 W/m2
03:29 15.4 °C 12.5 °C 1015.9 hPa WSW 3.2 km/h 6.4 km/h 83% 0.0 mm 0 W/m2
03:34 15.5 °C 12.4 °C 1015.9 hPa West 9.7 km/h 12.9 km/h 82% 0.0 mm 0 W/m2
03:39 15.6 °C 12.5 °C 1015.9 hPa NW 3.2 km/h 11.3 km/h 82% 0.0 mm 0 W/m2
03:44 15.4 °C 12.5 °C 1015.9 hPa Calm   12.9 km/h 83% 0.0 mm 0 W/m2
03:49 15.2 °C 12.5 °C 1015.9 hPa Calm   1.6 km/h 84% 0.0 mm 0 W/m2
03:54 14.8 °C 12.3 °C 1015.9 hPa WNW 3.2 km/h 3.2 km/h 85% 0.0 mm 0 W/m2
03:59 14.6 °C 12.3 °C 1015.9 hPa NNW 1.4 km/h 1.6 km/h 86% 0.0 mm 0 W/m2
04:04 14.3 °C 12.2 °C 1016.3 hPa Calm   3.2 km/h 87% 0.0 mm 0 W/m2
04:10 14.1 °C 12.1 °C 1015.9 hPa Calm     88% 0.0 mm 0 W/m2
04:15 13.8 °C 11.8 °C 1015.9 hPa Calm     88% 0.0 mm 0 W/m2
04:20 13.7 °C 11.9 °C 1015.9 hPa Calm   3.2 km/h 89% 0.0 mm 0 W/m2
04:25 13.5 °C 11.9 °C 1015.9 hPa Calm   3.2 km/h 90% 0.0 mm 0 W/m2
04:30 13.3 °C 11.7 °C 1015.9 hPa Calm     90% 0.0 mm 0 W/m2
04:35 13.3 °C 11.9 °C 1015.9 hPa Calm     91% 0.0 mm 0 W/m2
04:40 13.1 °C 11.7 °C 1015.9 hPa Calm     91% 0.0 mm 0 W/m2
04:45 13.1 °C 11.7 °C 1015.9 hPa Calm     91% 0.0 mm 0 W/m2
04:50 12.9 °C 11.5 °C 1015.9 hPa Calm     91% 0.0 mm 0 W/m2
04:55 12.8 °C 11.5 °C 1015.9 hPa Calm   1.6 km/h 92% 0.0 mm 0 W/m2
05:00 12.7 °C 11.4 °C 1016.3 hPa Calm     92% 0.0 mm 0 W/m2
05:05 12.7 °C 11.4 °C 1016.3 hPa Calm     92% 0.0 mm 0 W/m2
05:10 12.6 °C 11.3 °C 1016.3 hPa Calm     92% 0.0 mm 0 W/m2
05:15 12.5 °C 11.2 °C 1016.3 hPa Calm     92% 0.0 mm 0 W/m2
05:20 12.4 °C 11.3 °C 1016.3 hPa Calm     93% 0.0 mm 0 W/m2
05:25 12.3 °C 11.2 °C 1015.9 hPa Calm     93% 0.0 mm 0 W/m2
05:30 12.3 °C 11.2 °C 1015.9 hPa Calm     93% 0.0 mm 0 W/m2
05:35 12.3 °C 11.2 °C 1016.3 hPa Calm   1.6 km/h 93% 0.0 mm 0 W/m2
05:40 12.3 °C 11.2 °C 1016.3 hPa Calm     93% 0.0 mm 7 W/m2
05:45 12.3 °C 11.2 °C 1016.3 hPa Calm     93% 0.0 mm 11 W/m2
05:50 12.3 °C 11.4 °C 1016.3 hPa NNE 1.4 km/h 3.2 km/h 94% 0.0 mm 14 W/m2
05:55 12.3 °C 11.4 °C 1016.3 hPa Calm   1.6 km/h 94% 0.0 mm 18 W/m2
06:00 12.3 °C 11.4 °C 1016.3 hPa Calm   1.6 km/h 94% 0.0 mm 21 W/m2
06:05 12.4 °C 11.5 °C 1016.3 hPa ENE 3.2 km/h 3.2 km/h 94% 0.0 mm 26 W/m2
06:11 12.4 °C 11.5 °C 1016.3 hPa Calm   1.6 km/h 94% 0.0 mm 32 W/m2
06:16 12.5 °C 11.6 °C 1016.3 hPa ENE 3.2 km/h 3.2 km/h 94% 0.0 mm 35 W/m2
06:21 12.6 °C 11.7 °C 1016.3 hPa ESE 3.2 km/h 3.2 km/h 94% 0.0 mm 39 W/m2
06:26 12.6 °C 11.7 °C 1016.6 hPa ESE 1.4 km/h 3.2 km/h 94% 0.0 mm 42 W/m2
06:31 12.7 °C 11.8 °C 1016.3 hPa Calm     94% 0.0 mm 46 W/m2
06:36 12.8 °C 11.9 °C 1016.3 hPa Calm     94% 0.0 mm 53 W/m2
06:41 12.8 °C 11.9 °C 1016.3 hPa Calm     94% 0.0 mm 56 W/m2
06:46 12.9 °C 12 °C 1016.3 hPa ESE 1.4 km/h 1.6 km/h 94% 0.0 mm 63 W/m2
06:51 13 °C 12.1 °C 1016.3 hPa Calm   1.6 km/h 94% 0.0 mm 74 W/m2
06:56 13.2 °C 12.3 °C 1016.3 hPa Calm     94% 0.0 mm 74 W/m2
07:01 13.3 °C 12.4 °C 1016.3 hPa Calm     94% 0.0 mm 84 W/m2
07:06 13.4 °C 12.5 °C 1016.3 hPa Calm     94% 0.0 mm 79 W/m2
07:11 13.6 °C 12.5 °C 1016.6 hPa Calm     93% 0.0 mm 88 W/m2
07:16 13.8 °C 12.7 °C 1016.6 hPa Calm     93% 0.0 mm 91 W/m2
07:21 14 °C 12.9 °C 1016.6 hPa ESE 1.4 km/h 1.6 km/h 93% 0.0 mm 100 W/m2
07:26 14.2 °C 12.9 °C 1016.6 hPa Calm     92% 0.0 mm 107 W/m2
07:31 14.5 °C 13 °C 1016.6 hPa Calm     91% 0.0 mm 111 W/m2
07:36 14.8 °C 13.2 °C 1016.6 hPa Calm     90% 0.0 mm 114 W/m2
07:41 15.1 °C 13.3 °C 1016.6 hPa ENE 1.4 km/h 3.2 km/h 89% 0.0 mm 243 W/m2
07:46 15.4 °C 13.4 °C 1016.6 hPa Calm   1.6 km/h 88% 0.0 mm 250 W/m2
07:51 15.9 °C 13.7 °C 1016.6 hPa NE 1.4 km/h 4.8 km/h 87% 0.0 mm 232 W/m2
07:56 16.3 °C 13.8 °C 1016.6 hPa WSW 1.4 km/h 1.6 km/h 85% 0.0 mm 290 W/m2
08:01 16.7 °C 13.8 °C 1016.3 hPa WSW 4.7 km/h 4.8 km/h 83% 0.0 mm 306 W/m2
08:06 16.9 °C 13.8 °C 1016.6 hPa NW 3.2 km/h 3.2 km/h 82% 0.0 mm 262 W/m2
08:11 17.1 °C 13.8 °C 1016.6 hPa Calm   3.2 km/h 81% 0.0 mm 257 W/m2
08:16 17.2 °C 13.9 °C 1016.6 hPa Calm   3.2 km/h 81% 0.0 mm 292 W/m2
08:21 17.3 °C 13.8 °C 1016.6 hPa NNW 4.7 km/h 4.8 km/h 80% 0.0 mm 318 W/m2
08:26 17.4 °C 13.9 °C 1016.6 hPa NNW 1.4 km/h 8 km/h 80% 0.0 mm 302 W/m2
08:31 17.6 °C 13.9 °C 1016.6 hPa West 1.4 km/h 3.2 km/h 79% 0.0 mm 325 W/m2
08:36 17.7 °C 14 °C 1016.6 hPa Calm   6.4 km/h 79% 0.0 mm 350 W/m2
08:41 17.8 °C 14.1 °C 1016.6 hPa NNW 3.2 km/h 4.8 km/h 79% 0.0 mm 399 W/m2
08:46 17.9 °C 14 °C 1016.6 hPa WNW 3.2 km/h 6.4 km/h 78% 0.0 mm 336 W/m2
08:51 18.1 °C 14.4 °C 1016.6 hPa West 3.2 km/h 4.8 km/h 79% 0.0 mm 362 W/m2
08:56 18.1 °C 14.2 °C 1016.6 hPa NW 3.2 km/h 6.4 km/h 78% 0.0 mm 396 W/m2
09:01 18.1 °C 14.4 °C 1016.6 hPa WNW 7.9 km/h 12.9 km/h 79% 0.0 mm 418 W/m2
09:06 18.1 °C 14.4 °C 1016.6 hPa WNW 6.4 km/h 8 km/h 79% 0.0 mm 457 W/m2
09:11 18.1 °C 14.4 °C 1016.6 hPa WNW 1.4 km/h 3.2 km/h 79% 0.0 mm 466 W/m2
09:16 18.3 °C 14.8 °C 1016.6 hPa Calm   1.6 km/h 80% 0.0 mm 480 W/m2
09:21 18.4 °C 14.3 °C 1016.9 hPa NW 7.9 km/h 8 km/h 77% 0.0 mm 316 W/m2
09:26 18.1 °C 14.2 °C 1016.9 hPa NW 6.4 km/h 8 km/h 78% 0.0 mm 427 W/m2
09:31 17.9 °C 14.2 °C 1016.9 hPa WSW 6.4 km/h 9.7 km/h 79% 0.0 mm 362 W/m2
09:36 17.8 °C 14.1 °C 1016.9 hPa NW 6.4 km/h 16.1 km/h 79% 0.0 mm 432 W/m2
09:41 17.8 °C 14.1 °C 1016.9 hPa WNW 6.4 km/h 14.5 km/h 79% 0.0 mm 445 W/m2
09:47 17.7 °C 14.2 °C 1016.9 hPa SW 9.7 km/h 14.5 km/h 80% 0.0 mm 570 W/m2
09:52 17.7 °C 14.4 °C 1016.9 hPa NW 9.7 km/h 12.9 km/h 81% 0.0 mm 605 W/m2
09:57 18 °C 14.7 °C 1016.9 hPa West 13 km/h 12.9 km/h 81% 0.0 mm 601 W/m2
10:02 18.1 °C 14.6 °C 1016.9 hPa WNW 13 km/h 20.9 km/h 80% 0.0 mm 480 W/m2
10:07 18.1 °C 14.6 °C 1016.9 hPa WNW 7.9 km/h 12.9 km/h 80% 0.0 mm 496 W/m2
10:12 18.3 °C 14.8 °C 1016.9 hPa West 3.2 km/h 20.9 km/h 80% 0.0 mm 134 W/m2
10:17 18.6 °C 15.1 °C 1016.9 hPa WNW 11.1 km/h 11.3 km/h 80% 0.0 mm 524 W/m2
10:22 18.6 °C 14.9 °C 1016.9 hPa West 13 km/h 20.9 km/h 79% 0.0 mm 640 W/m2
10:27 18.9 °C 15 °C 1017.3 hPa West 13 km/h 14.5 km/h 78% 0.0 mm 557 W/m2
10:32 19.1 °C 15 °C 1016.9 hPa West 9.7 km/h 16.1 km/h 77% 0.0 mm 594 W/m2
10:37 19.2 °C 15.1 °C 1016.9 hPa WNW 4.7 km/h 9.7 km/h 77% 0.0 mm 696 W/m2
10:42 19.3 °C 15 °C 1017.3 hPa WSW 7.9 km/h 11.3 km/h 76% 0.0 mm 719 W/m2
10:47 19.3 °C 14.8 °C 1016.9 hPa West 6.4 km/h 16.1 km/h 75% 0.0 mm 735 W/m2
10:52 19.6 °C 15.3 °C 1016.9 hPa West 4.7 km/h 9.7 km/h 76% 0.0 mm 715 W/m2
10:57 19.8 °C 15.2 °C 1016.9 hPa SW 4.7 km/h 12.9 km/h 75% 0.0 mm 737 W/m2
11:02 20.1 °C 15.5 °C 1017.3 hPa NW 4.7 km/h 16.1 km/h 75% 0.0 mm 786 W/m2
11:07 20.2 °C 15.2 °C 1016.9 hPa West 14.3 km/h 14.5 km/h 73% 0.0 mm 710 W/m2
11:12 20.2 °C 15.2 °C 1016.9 hPa SSW 3.2 km/h 11.3 km/h 73% 0.0 mm 788 W/m2
11:17 20.3 °C 15.3 °C 1016.9 hPa NE 1.4 km/h 9.7 km/h 73% 0.0 mm 798 W/m2
11:22 20.7 °C 15.5 °C 1016.9 hPa WNW 3.2 km/h 6.4 km/h 72% 0.0 mm 838 W/m2
11:27 20.8 °C 15.1 °C 1016.9 hPa West 3.2 km/h 4.8 km/h 70% 0.0 mm 902 W/m2
11:32 21 °C 15.1 °C 1016.9 hPa West 4.7 km/h 11.3 km/h 69% 0.0 mm 353 W/m2
11:37 21 °C 15.1 °C 1016.9 hPa Calm   3.2 km/h 69% 0.0 mm 302 W/m2
11:42 20.9 °C 14.8 °C 1016.9 hPa WNW 17.7 km/h 17.7 km/h 68% 0.0 mm 234 W/m2
11:47 20.5 °C 14.8 °C 1016.9 hPa West 4.7 km/h 9.7 km/h 70% 0.0 mm 281 W/m2
11:52 20.3 °C 14.9 °C 1016.9 hPa West 6.4 km/h 8 km/h 71% 0.0 mm 336 W/m2
11:57 20.5 °C 15.5 °C 1016.9 hPa NNW 7.9 km/h 9.7 km/h 73% 0.0 mm 1111 W/m2
12:02 20.9 °C 15 °C 1016.9 hPa West 9.7 km/h 11.3 km/h 69% 0.0 mm 1155 W/m2
12:07 21 °C 15.1 °C 1016.9 hPa WSW 4.7 km/h 12.9 km/h 69% 0.0 mm 422 W/m2
12:12 20.8 °C 14.9 °C 1016.9 hPa WSW 4.7 km/h 9.7 km/h 69% 0.0 mm 473 W/m2
12:17 20.7 °C 15 °C 1016.9 hPa West 11.1 km/h 14.5 km/h 70% 0.0 mm 392 W/m2
12:22 20.6 °C 14.9 °C 1016.9 hPa WNW 11.1 km/h 12.9 km/h 70% 0.0 mm 387 W/m2
12:27 20.6 °C 14.9 °C 1016.9 hPa WNW 4.7 km/h 14.5 km/h 70% 0.0 mm 359 W/m2
12:32 20.5 °C 14.8 °C 1016.9 hPa WSW 11.1 km/h 12.9 km/h 70% 0.0 mm 345 W/m2
12:37 20.4 °C 15.2 °C 1016.9 hPa West 9.7 km/h 11.3 km/h 72% 0.0 mm 371 W/m2
12:42 20.4 °C 15 °C 1016.9 hPa WNW 9.7 km/h 9.7 km/h 71% 0.0 mm 357 W/m2
12:47 20.5 °C 14.8 °C 1016.9 hPa WNW 4.7 km/h 8 km/h 70% 0.0 mm 387 W/m2
12:52 20.6 °C 14.7 °C 1016.9 hPa WNW 7.9 km/h 12.9 km/h 69% 0.0 mm 404 W/m2
12:57 20.6 °C 14.7 °C 1016.9 hPa NNW 4.7 km/h 11.3 km/h 69% 0.0 mm 431 W/m2
13:02 20.7 °C 14.8 °C 1016.9 hPa NW 11.1 km/h 12.9 km/h 69% 0.0 mm 573 W/m2
13:07 20.8 °C 14.7 °C 1016.9 hPa NW 6.4 km/h 14.5 km/h 68% 0.0 mm 598 W/m2
13:12 20.9 °C 15 °C 1016.9 hPa NW 6.4 km/h 12.9 km/h 69% 0.0 mm 622 W/m2
13:17 21.2 °C 14.8 °C 1016.9 hPa NNW 9.7 km/h 14.5 km/h 67% 0.0 mm 1187 W/m2
13:22 21.5 °C 15.1 °C 1016.9 hPa NNW 9.7 km/h 16.1 km/h 67% 0.0 mm 1099 W/m2
13:27 21.7 °C 15.3 °C 1016.9 hPa West 14.3 km/h 14.5 km/h 67% 0.0 mm 541 W/m2
13:32 21.4 °C 14.8 °C 1016.9 hPa WNW 7.9 km/h 16.1 km/h 66% 0.0 mm 494 W/m2
13:37 21.3 °C 14.7 °C 1016.9 hPa WNW 6.4 km/h 12.9 km/h 66% 0.0 mm 420 W/m2
13:42 21.3 °C 14.7 °C 1016.9 hPa WSW 11.1 km/h 14.5 km/h 66% 0.0 mm 450 W/m2
13:47 21.4 °C 15.2 °C 1016.6 hPa NW 6.4 km/h 9.7 km/h 68% 0.0 mm 747 W/m2
13:57 22 °C 15.1 °C 1016.6 hPa WNW 7.9 km/h 12.9 km/h 65% 0.0 mm 967 W/m2
14:02 21.9 °C 14.8 °C 1016.6 hPa WNW 4.7 km/h 16.1 km/h 64% 0.0 mm 471 W/m2
14:07 21.7 °C 15.1 °C 1016.6 hPa WSW 6.4 km/h 12.9 km/h 66% 0.0 mm 441 W/m2
14:12 21.6 °C 15 °C 1016.6 hPa West 3.2 km/h 16.1 km/h 66% 0.0 mm 480 W/m2
14:17 21.6 °C 14.5 °C 1016.6 hPa North 9.7 km/h 12.9 km/h 64% 0.0 mm 668 W/m2
14:22 21.7 °C 14.3 °C 1016.3 hPa NW 13 km/h 16.1 km/h 63% 0.0 mm 464 W/m2
14:27 21.7 °C 14.3 °C 1016.6 hPa SW 13 km/h 12.9 km/h 63% 0.0 mm 438 W/m2
14:32 21.7 °C 14.6 °C 1016.3 hPa NNW 1.4 km/h 16.1 km/h 64% 0.0 mm 454 W/m2
14:37 21.8 °C 14.4 °C 1016.3 hPa SW 6.4 km/h 11.3 km/h 63% 0.0 mm 712 W/m2
14:42 22.1 °C 15 °C 1016.3 hPa SW 7.9 km/h 11.3 km/h 64% 0.0 mm 659 W/m2
14:47 22.2 °C 14.6 °C 1016.3 hPa West 9.7 km/h 12.9 km/h 62% 0.0 mm 390 W/m2
14:52 22.3 °C 14.7 °C 1016.3 hPa NNW 3.2 km/h 11.3 km/h 62% 0.0 mm 756 W/m2
14:57 22.3 °C 14.9 °C 1016.3 hPa West 6.4 km/h 9.7 km/h 63% 0.0 mm 308 W/m2
15:02 22.2 °C 14.3 °C 1016.3 hPa West 13 km/h 12.9 km/h 61% 0.0 mm 397 W/m2
15:08 22.4 °C 14.8 °C 1016.3 hPa NW 6.4 km/h 11.3 km/h 62% 0.0 mm 735 W/m2
15:13 22.7 °C 14.8 °C 1016.3 hPa West 11.1 km/h 16.1 km/h 61% 0.0 mm 679 W/m2
15:18 22.7 °C 14.5 °C 1016.3 hPa WNW 7.9 km/h 11.3 km/h 60% 0.0 mm 786 W/m2
15:23 22.8 °C 14.6 °C 1016.3 hPa NW 9.7 km/h 12.9 km/h 60% 0.0 mm 800 W/m2
15:28 22.8 °C 14.1 °C 1016.3 hPa WNW 4.7 km/h 12.9 km/h 58% 0.0 mm 840 W/m2
15:33 23.1 °C 14.6 °C 1016.3 hPa West 4.7 km/h 6.4 km/h 59% 0.0 mm 860 W/m2
15:38 23.3 °C 14.6 °C 1016.3 hPa WSW 14.3 km/h 19.3 km/h 58% 0.0 mm 842 W/m2
15:43 23.2 °C 14.5 °C 1015.9 hPa NW 7.9 km/h 11.3 km/h 58% 0.0 mm 838 W/m2
15:48 23.3 °C 14.6 °C 1015.9 hPa North 7.9 km/h 8 km/h 58% 0.0 mm 751 W/m2
15:53 23.5 °C 14.8 °C 1015.9 hPa West 1.4 km/h 6.4 km/h 58% 0.0 mm 777 W/m2
15:58 23.5 °C 14.5 °C 1015.9 hPa WNW 4.7 km/h 6.4 km/h 57% 0.0 mm 701 W/m2
16:03 23.4 °C 14.1 °C 1015.9 hPa WNW 4.7 km/h 11.3 km/h 56% 0.0 mm 635 W/m2
16:08 23.2 °C 14.2 °C 1015.9 hPa SW 4.7 km/h 14.5 km/h 57% 0.0 mm 584 W/m2
16:13 23.1 °C 14.6 °C 1015.9 hPa West 4.7 km/h 9.7 km/h 59% 0.0 mm 577 W/m2
16:18 22.9 °C 14.2 °C 1015.9 hPa WSW 11.1 km/h 17.7 km/h 58% 0.0 mm 561 W/m2
16:23 23.1 °C 13.8 °C 1015.9 hPa West 4.7 km/h 12.9 km/h 56% 0.0 mm 555 W/m2
16:28 23.2 °C 13.9 °C 1015.6 hPa North 4.7 km/h 8 km/h 56% 0.0 mm 592 W/m2
16:33 23.4 °C 13.6 °C 1015.9 hPa WNW 7.9 km/h 9.7 km/h 54% 0.0 mm 643 W/m2
16:39 23.4 °C 13 °C 1015.9 hPa NNW 3.2 km/h 11.3 km/h 52% 0.0 mm 640 W/m2
16:44 23.7 °C 14.1 °C 1015.6 hPa NW 4.7 km/h 12.9 km/h 55% 0.0 mm 461 W/m2
16:49 23.7 °C 14.4 °C 1015.6 hPa WNW 4.7 km/h 9.7 km/h 56% 0.0 mm 686 W/m2
16:54 23.9 °C 14 °C 1015.6 hPa WSW 7.9 km/h 12.9 km/h 54% 0.0 mm 728 W/m2
16:59 23.6 °C 14 °C 1015.6 hPa WSW 6.4 km/h 14.5 km/h 55% 0.0 mm 258 W/m2
17:04 23.2 °C 13.9 °C 1015.6 hPa WNW 4.7 km/h 9.7 km/h 56% 0.0 mm 717 W/m2
17:09 23.3 °C 14.3 °C 1015.6 hPa NNW 4.7 km/h 6.4 km/h 57% 0.0 mm 599 W/m2
17:14 23.3 °C 14.3 °C 1015.6 hPa SSW 4.7 km/h 14.5 km/h 57% 0.0 mm 445 W/m2
17:19 23.2 °C 14.2 °C 1015.6 hPa West 3.2 km/h 16.1 km/h 57% 0.0 mm 199 W/m2
17:24 22.9 °C 14.2 °C 1015.6 hPa WSW 4.7 km/h 12.9 km/h 58% 0.0 mm 297 W/m2
17:29 22.8 °C 14.1 °C 1015.6 hPa West 3.2 km/h 16.1 km/h 58% 0.0 mm 327 W/m2
17:34 22.7 °C 14 °C 1015.6 hPa West 6.4 km/h 9.7 km/h 58% 0.0 mm 355 W/m2
17:39 22.6 °C 13.6 °C 1015.9 hPa West 9.7 km/h 16.1 km/h 57% 0.0 mm 250 W/m2
17:44 22.4 °C 14.3 °C 1015.6 hPa WSW 7.9 km/h 11.3 km/h 60% 0.0 mm 232 W/m2
17:49 22.3 °C 14.4 °C 1015.6 hPa West 4.7 km/h 14.5 km/h 61% 0.0 mm 221 W/m2
17:54 22.3 °C 14.2 °C 1015.6 hPa NE 4.7 km/h 8 km/h 60% 0.0 mm 229 W/m2
17:59 22.3 °C 14.2 °C 1015.6 hPa WNW 4.7 km/h 9.7 km/h 60% 0.0 mm 218 W/m2
18:04 22.2 °C 14.3 °C 1015.6 hPa West 11.1 km/h 16.1 km/h 61% 0.0 mm 193 W/m2
18:09 22.1 °C 14 °C 1015.6 hPa WSW 4.7 km/h 9.7 km/h 60% 0.0 mm 183 W/m2
18:14 22.1 °C 14 °C 1015.6 hPa West 3.2 km/h 6.4 km/h 60% 0.0 mm 165 W/m2
18:19 22.1 °C 13.7 °C 1015.6 hPa WNW 3.2 km/h 12.9 km/h 59% 0.0 mm 156 W/m2
18:24 22.1 °C 14 °C 1015.6 hPa West 6.4 km/h 9.7 km/h 60% 0.0 mm 141 W/m2
18:29 22.1 °C 13.7 °C 1015.6 hPa West 4.7 km/h 9.7 km/h 59% 0.0 mm 148 W/m2
18:34 22 °C 13.6 °C 1015.6 hPa WNW 3.2 km/h 6.4 km/h 59% 0.0 mm 155 W/m2
18:39 21.9 °C 13.8 °C 1015.6 hPa Calm   4.8 km/h 60% 0.0 mm 141 W/m2
18:44 22 °C 14.1 °C 1015.9 hPa WSW 4.7 km/h 4.8 km/h 61% 0.0 mm 134 W/m2
18:49 22 °C 13.9 °C 1015.6 hPa WSW 4.7 km/h 6.4 km/h 60% 0.0 mm 123 W/m2
18:54 22 °C 13.4 °C 1015.6 hPa NW 1.4 km/h 6.4 km/h 58% 0.0 mm 113 W/m2
18:59 22.1 °C 13.7 °C 1015.6 hPa NW 3.2 km/h 4.8 km/h 59% 0.0 mm 125 W/m2
19:04 22.1 °C 14.2 °C 1015.9 hPa WSW 1.4 km/h 3.2 km/h 61% 0.0 mm 135 W/m2
19:09 22.2 °C 13.8 °C 1015.9 hPa West 1.4 km/h 4.8 km/h 59% 0.0 mm 221 W/m2
19:14 22.3 °C 13.6 °C 1015.6 hPa NW 3.2 km/h 6.4 km/h 58% 0.0 mm 137 W/m2
19:19 22.4 °C 13.7 °C 1015.6 hPa NW 4.7 km/h 4.8 km/h 58% 0.0 mm 134 W/m2
19:24 22.4 °C 14.3 °C 1015.6 hPa WNW 1.4 km/h 3.2 km/h 60% 0.0 mm 130 W/m2
19:29 22.4 °C 14.3 °C 1015.6 hPa West 3.2 km/h 4.8 km/h 60% 0.0 mm 95 W/m2
19:34 22.2 °C 13.5 °C 1015.6 hPa WSW 4.7 km/h 9.7 km/h 58% 0.0 mm 86 W/m2
19:39 22.1 °C 14 °C 1015.9 hPa West 1.4 km/h 4.8 km/h 60% 0.0 mm 69 W/m2
19:44 22 °C 13.9 °C 1015.9 hPa West 1.4 km/h 9.7 km/h 60% 0.0 mm 67 W/m2
19:49 21.9 °C 14 °C 1015.6 hPa West 3.2 km/h 3.2 km/h 61% 0.0 mm 67 W/m2
19:54 21.9 °C 14.3 °C 1015.6 hPa Calm   4.8 km/h 62% 0.0 mm 74 W/m2
20:00 21.9 °C 14 °C 1015.9 hPa West 1.4 km/h 3.2 km/h 61% 0.0 mm 88 W/m2
20:05 21.9 °C 14.8 °C 1015.9 hPa West 1.4 km/h 1.6 km/h 64% 0.0 mm 81 W/m2
20:10 22.1 °C 15.2 °C 1015.9 hPa West 1.4 km/h 1.6 km/h 65% 0.0 mm 62 W/m2
20:15 22 °C 14.6 °C 1015.9 hPa West 1.4 km/h 3.2 km/h 63% 0.0 mm 60 W/m2
20:20 21.9 °C 14 °C 1015.9 hPa WNW 1.4 km/h 4.8 km/h 61% 0.0 mm 54 W/m2
20:25 21.8 °C 14.4 °C 1015.9 hPa Calm     63% 0.0 mm 56 W/m2
20:30 21.7 °C 14.3 °C 1015.9 hPa West 3.2 km/h 4.8 km/h 63% 0.0 mm 65 W/m2
20:35 21.8 °C 14.9 °C 1015.9 hPa Calm     65% 0.0 mm 65 W/m2
20:40 21.8 °C 14.9 °C 1015.9 hPa Calm     65% 0.0 mm 62 W/m2
20:45 21.9 °C 15.3 °C 1015.9 hPa Calm   1.6 km/h 66% 0.0 mm 58 W/m2
20:50 21.8 °C 14.9 °C 1015.9 hPa WSW 1.4 km/h 1.6 km/h 65% 0.0 mm 53 W/m2
20:55 21.8 °C 14.2 °C 1015.9 hPa West 1.4 km/h 3.2 km/h 62% 0.0 mm 46 W/m2
21:00 21.6 °C 14.3 °C 1015.9 hPa West 1.4 km/h 4.8 km/h 63% 0.0 mm 39 W/m2
21:05 21.4 °C 14.3 °C 1015.9 hPa WSW 3.2 km/h 3.2 km/h 64% 0.0 mm 35 W/m2
21:10 21.3 °C 14.2 °C 1015.9 hPa WSW 3.2 km/h 4.8 km/h 64% 0.0 mm 32 W/m2
21:15 21.1 °C 14 °C 1015.9 hPa West 6.4 km/h 6.4 km/h 64% 0.0 mm 25 W/m2
21:20 20.9 °C 14.1 °C 1015.9 hPa WSW 1.4 km/h 3.2 km/h 65% 0.0 mm 21 W/m2
21:25 20.7 °C 13.9 °C 1015.9 hPa West 1.4 km/h 6.4 km/h 65% 0.0 mm 19 W/m2
21:30 20.6 °C 14 °C 1015.9 hPa WSW 3.2 km/h 3.2 km/h 66% 0.0 mm 16 W/m2
21:35 20.4 °C 14.1 °C 1015.9 hPa SW 1.4 km/h 6.4 km/h 67% 0.0 mm 12 W/m2
21:40 20.2 °C 13.9 °C 1016.3 hPa Calm   3.2 km/h 67% 0.0 mm 7 W/m2
21:45 20.1 °C 13.8 °C 1016.3 hPa West 1.4 km/h 4.8 km/h 67% 0.0 mm 5 W/m2
21:50 19.9 °C 13.6 °C 1016.3 hPa West 3.2 km/h 9.7 km/h 67% 0.0 mm 0 W/m2
21:55 19.8 °C 13.5 °C 1016.3 hPa Calm   3.2 km/h 67% 0.0 mm 0 W/m2
22:00 19.7 °C 13.6 °C 1016.3 hPa West 1.4 km/h 4.8 km/h 68% 0.0 mm 0 W/m2
22:05 19.5 °C 13.4 °C 1016.3 hPa West 3.2 km/h 6.4 km/h 68% 0.0 mm 0 W/m2
22:10 19.4 °C 13.3 °C 1016.3 hPa West 1.4 km/h 4.8 km/h 68% 0.0 mm 0 W/m2
22:15 19.3 °C 13.2 °C 1016.3 hPa WSW 3.2 km/h 6.4 km/h 68% 0.0 mm 0 W/m2
22:20 19.3 °C 13.2 °C 1016.3 hPa WSW 1.4 km/h 6.4 km/h 68% 0.0 mm 0 W/m2
22:25 19.3 °C 13.5 °C 1016.3 hPa Calm   1.6 km/h 69% 0.0 mm 0 W/m2
22:30 19.2 °C 13.4 °C 1016.6 hPa WSW 1.4 km/h 3.2 km/h 69% 0.0 mm 0 W/m2
22:35 19.1 °C 13.5 °C 1016.6 hPa WSW 3.2 km/h 3.2 km/h 70% 0.0 mm 0 W/m2
22:40 18.8 °C 13.2 °C 1016.6 hPa Calm   3.2 km/h 70% 0.0 mm 0 W/m2
22:45 18.7 °C 13.3 °C 1016.6 hPa Calm   1.6 km/h 71% 0.0 mm 0 W/m2
22:50 18.6 °C 13.2 °C 1016.6 hPa West 1.4 km/h 3.2 km/h 71% 0.0 mm 0 W/m2
22:55 18.5 °C 13.1 °C 1016.6 hPa West 3.2 km/h 11.3 km/h 71% 0.0 mm 0 W/m2
23:00 18.6 °C 13.2 °C 1016.6 hPa WNW 3.2 km/h 3.2 km/h 71% 0.0 mm 0 W/m2
23:05 18.6 °C 13.2 °C 1016.6 hPa WNW 3.2 km/h 8 km/h 71% 0.0 mm 0 W/m2
23:10 18.5 °C 13.4 °C 1016.6 hPa WNW 3.2 km/h 6.4 km/h 72% 0.0 mm 0 W/m2
23:15 18.5 °C 13.4 °C 1016.6 hPa West 4.7 km/h 9.7 km/h 72% 0.0 mm 0 W/m2
23:20 18.5 °C 13.4 °C 1016.6 hPa WNW 4.7 km/h 6.4 km/h 72% 0.0 mm 0 W/m2
23:26 18.5 °C 13.4 °C 1016.6 hPa West 4.7 km/h 9.7 km/h 72% 0.0 mm 0 W/m2
23:31 18.4 °C 13 °C 1016.6 hPa NW 1.4 km/h 6.4 km/h 71% 0.0 mm 0 W/m2
23:36 18.4 °C 13.3 °C 1016.6 hPa West 1.4 km/h 4.8 km/h 72% 0.0 mm 0 W/m2
23:41 18.3 °C 13.2 °C 1016.6 hPa West 3.2 km/h 3.2 km/h 72% 0.0 mm 0 W/m2
23:46 18.2 °C 13.1 °C 1016.6 hPa NW 4.7 km/h 4.8 km/h 72% 0.0 mm 0 W/m2
23:51 18.2 °C 13.1 °C 1016.6 hPa West 3.2 km/h 4.8 km/h 72% 0.0 mm 0 W/m2
23:56 18.1 °C 13.2 °C 1016.6 hPa Calm   6.4 km/h 73% 0.0 mm 0 W/m2
Juneau County Weather
Compliments of Weather Underground - 4 mb